Bradley International Airport
KBDL : now visible

Airfield :











YOU CAN JOIN US ON...

 
LOGIN :

Register | Disclaimer

   EN    FR    IT 

 









Legend :    VFR   Marginal VFR   IFR   Intensive IFR   Very Intensive IFR
Visi :
Ceiling :
>= 8 km
>= 3000ft
5 to 8 km
1000 to 3000 ft
1500m to 5 km
500 to 1000 ft
800 to 1500m
200 to 500 ft
< 800m
< 200 ft
Symbols :   Thunderstorms  Fog  Heavy snow  Heavy precipitations  Wind > 20 kt







- Airport Elevation : 173 ft
- IATA code : BDL


KBDL - Bradley International

CURRENT METAR :
  • 210951Z 31014G22KT 10SM SCT040 SCT250 13/04 A2983 RMK AO2 SLP101 T01280039 $

EXPIRED METARs :
  • 210851Z 32009KT 10SM FEW038 SCT050 SCT250 13/05 A2980 RMK AO2 SLP092 T01280050 51012 $
  • 210751Z 36005KT 10SM SCT055 BKN250 13/05 A2980 RMK AO2 PK WND 31026/0653 SLP090 T01330050 $

TAF KBDL
Valid from the 21 at 08:00 until the 22 at 12:00 UTC


210812Z 2108/2212 32008KT P6SM FEW250
FM211200 30013G22KT P6SM FEW250
FM211500 31019G28KT P6SM FEW250
FM220000 31010G19KT P6SM FEW250
FM220200 31008KT P6SM FEW250
KZBW FIR / North America



MET'MAP, your aeronautical weather chart ! - Copyright ORBIFLY December 2007 - Disclaimer

ORBIFLY MET'MAP TEAM :

Programming & Development : Alexandra Zaïnal
Concept & Development : Baudouin d'Aumeries
Co-Development & Prog : Marc-Olivier Méhu
Technical & hardware support : Manuel Goepfert

Contact : metmap@orbifly.com




SOURCES & CREDITS :

   NOAA       Earth
Advisory